createdAt,value
2018-03-18T00:00:17.000Z,99494
2018-03-18T00:01:17.000Z,99482
2018-03-18T00:03:17.000Z,99484
2018-03-18T00:05:17.000Z,99497
2018-03-18T00:06:17.000Z,99503
2018-03-18T00:08:17.000Z,99497
2018-03-18T00:10:17.000Z,99493
2018-03-18T00:12:17.000Z,99507
2018-03-18T00:13:17.000Z,99507
2018-03-18T00:15:17.000Z,99511
2018-03-18T00:16:17.000Z,99495
2018-03-18T00:18:02.000Z,99505
2018-03-18T00:19:17.000Z,99497
2018-03-18T00:21:17.000Z,99508
2018-03-18T00:22:17.000Z,99513
2018-03-18T00:24:17.000Z,99514
2018-03-18T00:26:17.000Z,99502
2018-03-18T00:28:17.000Z,99511
2018-03-18T00:30:17.000Z,99500
2018-03-18T00:32:02.000Z,99526
2018-03-18T00:33:17.000Z,99513
2018-03-18T00:35:17.000Z,99525
2018-03-18T00:37:17.000Z,99523
2018-03-18T00:39:17.000Z,99529
2018-03-18T00:41:02.000Z,99509
2018-03-18T00:42:17.000Z,99514
2018-03-18T00:43:17.000Z,99517
2018-03-18T00:45:17.000Z,99514
2018-03-18T00:47:17.000Z,99512
2018-03-18T00:49:17.000Z,99514
2018-03-18T00:51:17.000Z,99526
2018-03-18T00:52:17.000Z,99520
2018-03-18T00:53:46.000Z,99515
2018-03-18T00:55:17.000Z,99520
2018-03-18T00:57:16.000Z,99522
2018-03-18T00:59:16.000Z,99518
2018-03-18T01:00:16.000Z,99523
2018-03-18T01:02:16.000Z,99518
2018-03-18T01:04:01.000Z,99485
2018-03-18T01:05:16.000Z,99516
2018-03-18T01:06:16.000Z,99483
2018-03-18T01:08:16.000Z,99511
2018-03-18T01:09:16.000Z,99495
2018-03-18T01:11:16.000Z,99509
2018-03-18T01:12:16.000Z,99497
2018-03-18T01:13:16.000Z,99500
2018-03-18T01:15:16.000Z,99503
2018-03-18T01:17:16.000Z,99500
2018-03-18T01:18:16.000Z,99509
2018-03-18T01:20:16.000Z,99494
2018-03-18T01:21:16.000Z,99496
2018-03-18T01:23:16.000Z,99491
2018-03-18T01:25:16.000Z,99496
2018-03-18T01:26:16.000Z,99486
2018-03-18T01:28:16.000Z,99483
2018-03-18T01:30:16.000Z,99474
2018-03-18T01:31:16.000Z,99490
2018-03-18T01:33:16.000Z,99492
2018-03-18T01:35:16.000Z,99495
2018-03-18T01:37:16.000Z,99490
2018-03-18T01:39:16.000Z,99477
2018-03-18T01:41:16.000Z,99486
2018-03-18T01:43:01.000Z,99485
2018-03-18T01:44:16.000Z,99495
2018-03-18T01:46:16.000Z,99491
2018-03-18T01:48:16.000Z,99500
2018-03-18T01:49:16.000Z,99491
2018-03-18T01:51:16.000Z,99488
2018-03-18T01:52:16.000Z,99478
2018-03-18T01:54:16.000Z,99494
2018-03-18T01:56:16.000Z,99501
2018-03-18T01:57:16.000Z,99492
2018-03-18T01:58:16.000Z,99490
2018-03-18T01:59:16.000Z,99491
2018-03-18T02:01:01.000Z,99494
2018-03-18T02:02:16.000Z,99495
2018-03-18T02:04:16.000Z,99498
2018-03-18T02:05:16.000Z,99484
2018-03-18T02:07:16.000Z,99490
2018-03-18T02:08:16.000Z,99483
2018-03-18T02:10:16.000Z,99493
2018-03-18T02:12:16.000Z,99489
2018-03-18T02:14:16.000Z,99484
2018-03-18T02:16:01.000Z,99480
2018-03-18T02:17:16.000Z,99493
2018-03-18T02:19:16.000Z,99496
2018-03-18T02:20:16.000Z,99487
2018-03-18T02:22:16.000Z,99495
2018-03-18T02:24:16.000Z,99476
2018-03-18T02:26:16.000Z,99474
2018-03-18T02:27:16.000Z,99476
2018-03-18T02:29:16.000Z,99475
2018-03-18T02:31:16.000Z,99480
2018-03-18T02:32:16.000Z,99483
2018-03-18T02:34:16.000Z,99474
2018-03-18T02:35:16.000Z,99471
2018-03-18T02:37:16.000Z,99476
2018-03-18T02:39:16.000Z,99481
2018-03-18T02:40:16.000Z,99477
2018-03-18T02:42:16.000Z,99471
2018-03-18T02:44:16.000Z,99481
2018-03-18T02:45:16.000Z,99489
2018-03-18T02:47:16.000Z,99465
2018-03-18T02:49:16.000Z,99468
2018-03-18T02:50:16.000Z,99463
2018-03-18T02:51:16.000Z,99458
2018-03-18T02:53:16.000Z,99459
2018-03-18T02:55:16.000Z,99454
2018-03-18T02:57:16.000Z,99470
2018-03-18T02:58:16.000Z,99472
2018-03-18T02:59:16.000Z,99460
2018-03-18T03:00:16.000Z,99450
2018-03-18T03:01:16.000Z,99455
2018-03-18T03:03:17.000Z,99462
2018-03-18T03:05:02.000Z,99448
2018-03-18T03:06:17.000Z,99468
2018-03-18T03:08:17.000Z,99458
2018-03-18T03:10:17.000Z,99469
2018-03-18T03:12:17.000Z,99468
2018-03-18T03:14:17.000Z,99463
2018-03-18T03:16:17.000Z,99462
2018-03-18T03:18:17.000Z,99463
2018-03-18T03:20:17.000Z,99463
2018-03-18T03:22:17.000Z,99463
2018-03-18T03:24:17.000Z,99473
2018-03-18T03:25:17.000Z,99471
2018-03-18T03:27:17.000Z,99464
2018-03-18T03:28:17.000Z,99467
2018-03-18T03:30:17.000Z,99463
2018-03-18T03:31:17.000Z,99461
2018-03-18T03:33:17.000Z,99468
2018-03-18T03:35:17.000Z,99466
2018-03-18T03:36:17.000Z,99468
2018-03-18T03:37:17.000Z,99469
2018-03-18T03:38:17.000Z,99476
2018-03-18T03:40:17.000Z,99467
2018-03-18T03:42:02.000Z,99479
2018-03-18T03:43:17.000Z,99478
2018-03-18T03:45:17.000Z,99484
2018-03-18T03:46:17.000Z,99464
2018-03-18T03:48:17.000Z,99470
2018-03-18T03:50:17.000Z,99477
2018-03-18T03:52:17.000Z,99480
2018-03-18T03:53:17.000Z,99461
2018-03-18T03:55:17.000Z,99471
2018-03-18T03:57:17.000Z,99463
2018-03-18T03:59:17.000Z,99482
2018-03-18T04:01:17.000Z,99480
2018-03-18T04:02:47.000Z,99475
2018-03-18T04:04:17.000Z,99481
2018-03-18T04:05:17.000Z,99484
2018-03-18T04:07:17.000Z,99476
2018-03-18T04:08:17.000Z,99486
2018-03-18T04:10:17.000Z,99478
2018-03-18T04:11:17.000Z,99489
2018-03-18T04:12:17.000Z,99491
2018-03-18T04:14:17.000Z,99495
2018-03-18T04:15:17.000Z,99491
2018-03-18T04:17:17.000Z,99499
2018-03-18T04:18:17.000Z,99487
2018-03-18T04:20:17.000Z,99487
2018-03-18T04:21:17.000Z,99497
2018-03-18T04:23:17.000Z,99493
2018-03-18T04:25:17.000Z,99484
2018-03-18T04:26:17.000Z,99496
2018-03-18T04:28:17.000Z,99498
2018-03-18T04:30:17.000Z,99493
2018-03-18T04:31:17.000Z,99494
2018-03-18T04:33:17.000Z,99497
2018-03-18T04:34:17.000Z,99501
2018-03-18T04:35:17.000Z,99495
2018-03-18T04:37:17.000Z,99494
2018-03-18T04:39:17.000Z,99510
2018-03-18T04:41:17.000Z,99501
2018-03-18T04:43:17.000Z,99495
2018-03-18T04:44:17.000Z,99484
2018-03-18T04:45:17.000Z,99510
2018-03-18T04:47:17.000Z,99493
2018-03-18T04:49:02.000Z,99502
2018-03-18T04:50:17.000Z,99498
2018-03-18T04:51:17.000Z,99497
2018-03-18T04:53:17.000Z,99501
2018-03-18T04:54:17.000Z,99498
2018-03-18T04:55:17.000Z,99497
2018-03-18T04:57:17.000Z,99475
2018-03-18T04:59:02.000Z,99497
2018-03-18T05:00:17.000Z,99499
2018-03-18T05:01:17.000Z,99514
2018-03-18T05:02:17.000Z,99508
2018-03-18T05:04:17.000Z,99515
2018-03-18T05:06:02.000Z,99507
2018-03-18T05:07:17.000Z,99513
2018-03-18T05:08:17.000Z,99509
2018-03-18T05:10:16.000Z,99512
2018-03-18T05:12:01.000Z,99509
2018-03-18T05:13:01.000Z,99513
2018-03-18T05:14:16.000Z,99517
2018-03-18T05:16:01.000Z,99520
2018-03-18T05:17:16.000Z,99519
2018-03-18T05:19:16.000Z,99514
2018-03-18T05:21:16.000Z,99524
2018-03-18T05:23:16.000Z,99510
2018-03-18T05:25:16.000Z,99519
2018-03-18T05:27:01.000Z,99523
2018-03-18T05:28:16.000Z,99517
2018-03-18T05:30:16.000Z,99520
2018-03-18T05:32:16.000Z,99527
2018-03-18T05:34:16.000Z,99531
2018-03-18T05:36:16.000Z,99534
2018-03-18T05:37:16.000Z,99519
2018-03-18T05:39:16.000Z,99524
2018-03-18T05:41:16.000Z,99524
2018-03-18T05:42:16.000Z,99521
2018-03-18T05:43:16.000Z,99526
2018-03-18T05:45:16.000Z,99516
2018-03-18T05:47:01.000Z,99524
2018-03-18T05:48:16.000Z,99534
2018-03-18T05:49:16.000Z,99528
2018-03-18T05:51:16.000Z,99534
2018-03-18T05:53:16.000Z,99549
2018-03-18T05:55:16.000Z,99533
2018-03-18T05:56:16.000Z,99540
2018-03-18T05:58:16.000Z,99539
2018-03-18T05:59:16.000Z,99547
2018-03-18T06:01:01.000Z,99534
2018-03-18T06:02:16.000Z,99545
2018-03-18T06:03:16.000Z,99549
2018-03-18T06:05:16.000Z,99541
2018-03-18T06:07:01.000Z,99546
2018-03-18T06:08:16.000Z,99534
2018-03-18T06:09:16.000Z,99547
2018-03-18T06:10:16.000Z,99549
2018-03-18T06:11:16.000Z,99557
2018-03-18T06:13:16.000Z,99560
2018-03-18T06:14:47.000Z,99556
2018-03-18T06:16:17.000Z,99549
2018-03-18T06:18:17.000Z,99570
2018-03-18T06:20:02.000Z,99566
2018-03-18T06:21:17.000Z,99566
2018-03-18T06:23:17.000Z,99575
2018-03-18T06:24:17.000Z,99567
2018-03-18T06:25:17.000Z,99565
2018-03-18T06:27:17.000Z,99577
2018-03-18T06:29:17.000Z,99570
2018-03-18T06:30:17.000Z,99572
2018-03-18T06:32:17.000Z,99575
2018-03-18T06:33:17.000Z,99570
2018-03-18T06:35:17.000Z,99573
2018-03-18T06:37:17.000Z,99576
2018-03-18T06:39:17.000Z,99578
2018-03-18T06:41:17.000Z,99580
2018-03-18T06:42:17.000Z,99578
2018-03-18T06:44:17.000Z,99580
2018-03-18T06:45:17.000Z,99585
2018-03-18T06:47:17.000Z,99572
2018-03-18T06:49:17.000Z,99572
2018-03-18T06:50:17.000Z,99585
2018-03-18T06:52:17.000Z,99590
2018-03-18T06:53:17.000Z,99579
2018-03-18T06:55:02.000Z,99580
2018-03-18T06:56:17.000Z,99594
2018-03-18T06:57:47.000Z,99594
2018-03-18T06:59:17.000Z,99577
2018-03-18T07:01:17.000Z,99582
2018-03-18T07:02:17.000Z,99589
2018-03-18T07:04:17.000Z,99583
2018-03-18T07:06:17.000Z,99599
2018-03-18T07:07:17.000Z,99600
2018-03-18T07:09:17.000Z,99604
2018-03-18T07:11:17.000Z,99602
2018-03-18T07:13:17.000Z,99587
2018-03-18T07:14:17.000Z,99599
2018-03-18T07:16:02.000Z,99604
2018-03-18T07:17:16.000Z,99605
2018-03-18T07:18:46.000Z,99606
2018-03-18T07:20:16.000Z,99612
2018-03-18T07:22:16.000Z,99615
2018-03-18T07:24:16.000Z,99618
2018-03-18T07:26:01.000Z,99620
2018-03-18T07:27:16.000Z,99615
2018-03-18T07:29:01.000Z,99620
2018-03-18T07:30:16.000Z,99622
2018-03-18T07:31:16.000Z,99611
2018-03-18T07:33:16.000Z,99627
2018-03-18T07:35:01.000Z,99598
2018-03-18T07:36:16.000Z,99610
2018-03-18T07:38:16.000Z,99624
2018-03-18T07:39:16.000Z,99615
2018-03-18T07:41:16.000Z,99628
2018-03-18T07:43:16.000Z,99617
2018-03-18T07:44:16.000Z,99621
2018-03-18T07:46:16.000Z,99634
2018-03-18T07:48:16.000Z,99628
2018-03-18T07:50:16.000Z,99630
2018-03-18T07:51:16.000Z,99631
2018-03-18T07:53:16.000Z,99642
2018-03-18T07:55:01.000Z,99638
2018-03-18T07:56:16.000Z,99640
2018-03-18T07:57:46.000Z,99649
2018-03-18T07:59:16.000Z,99651
2018-03-18T08:00:16.000Z,99647
2018-03-18T08:01:46.000Z,99640
2018-03-18T08:03:16.000Z,99655
2018-03-18T08:04:16.000Z,99642
2018-03-18T08:05:16.000Z,99637
2018-03-18T08:07:16.000Z,99637
2018-03-18T08:08:46.000Z,99642
2018-03-18T08:10:16.000Z,99654
2018-03-18T08:12:16.000Z,99644
2018-03-18T08:14:16.000Z,99643
2018-03-18T08:15:16.000Z,99653
2018-03-18T08:17:16.000Z,99643
2018-03-18T08:19:16.000Z,99645
2018-03-18T08:20:16.000Z,99643
2018-03-18T08:22:01.000Z,99650
2018-03-18T08:23:16.000Z,99637
2018-03-18T08:24:16.000Z,99640
2018-03-18T08:25:16.000Z,99640
2018-03-18T08:27:16.000Z,99645
2018-03-18T08:29:16.000Z,99639
2018-03-18T08:30:16.000Z,99646
2018-03-18T08:32:16.000Z,99641
2018-03-18T08:34:16.000Z,99650
2018-03-18T08:36:16.000Z,99631
2018-03-18T08:38:16.000Z,99636
2018-03-18T08:40:16.000Z,99636
2018-03-18T08:42:16.000Z,99645
2018-03-18T08:44:16.000Z,99641
2018-03-18T08:45:16.000Z,99637
2018-03-18T08:47:16.000Z,99631
2018-03-18T08:48:16.000Z,99641
2018-03-18T08:50:16.000Z,99623
2018-03-18T08:51:16.000Z,99633
2018-03-18T08:52:16.000Z,99637
2018-03-18T08:54:01.000Z,99617
2018-03-18T08:55:16.000Z,99628
2018-03-18T08:57:16.000Z,99644
2018-03-18T08:58:16.000Z,99635
2018-03-18T09:00:16.000Z,99640
2018-03-18T09:02:16.000Z,99639
2018-03-18T09:03:16.000Z,99629
2018-03-18T09:05:16.000Z,99637
2018-03-18T09:06:16.000Z,99629
2018-03-18T09:08:16.000Z,99646
2018-03-18T09:10:16.000Z,99635
2018-03-18T09:12:16.000Z,99635
2018-03-18T09:13:46.000Z,99647
2018-03-18T09:15:16.000Z,99657
2018-03-18T09:16:16.000Z,99647
2018-03-18T09:17:16.000Z,99647
2018-03-18T09:19:01.000Z,99646
2018-03-18T09:20:16.000Z,99646
2018-03-18T09:22:16.000Z,99649
2018-03-18T09:23:16.000Z,99636
2018-03-18T09:24:17.000Z,99638
2018-03-18T09:26:17.000Z,99650
2018-03-18T09:28:17.000Z,99649
2018-03-18T09:30:17.000Z,99639
2018-03-18T09:31:17.000Z,99651
2018-03-18T09:33:17.000Z,99653
2018-03-18T09:35:17.000Z,99653
2018-03-18T09:37:17.000Z,99658
2018-03-18T09:38:17.000Z,99651
2018-03-18T09:40:02.000Z,99667
2018-03-18T09:41:17.000Z,99652
2018-03-18T09:43:17.000Z,99668
2018-03-18T09:45:02.000Z,99667
2018-03-18T09:46:17.000Z,99670
2018-03-18T09:48:17.000Z,99666
2018-03-18T09:50:17.000Z,99665
2018-03-18T09:51:17.000Z,99675
2018-03-18T09:53:17.000Z,99667
2018-03-18T09:55:17.000Z,99689
2018-03-18T09:57:02.000Z,99681
2018-03-18T09:58:17.000Z,99665
2018-03-18T09:59:17.000Z,99681
2018-03-18T10:01:17.000Z,99684
2018-03-18T10:03:17.000Z,99681
2018-03-18T10:05:17.000Z,99676
2018-03-18T10:07:17.000Z,99682
2018-03-18T10:08:17.000Z,99665
2018-03-18T10:10:17.000Z,99672
2018-03-18T10:12:17.000Z,99685
2018-03-18T10:13:17.000Z,99685
2018-03-18T10:15:17.000Z,99695
2018-03-18T10:16:47.000Z,99693
2018-03-18T10:18:17.000Z,99689
2018-03-18T10:20:02.000Z,99694
2018-03-18T10:21:17.000Z,99688
2018-03-18T10:22:47.000Z,99703
2018-03-18T10:24:17.000Z,99688
2018-03-18T10:25:17.000Z,99698
2018-03-18T10:27:17.000Z,99685
2018-03-18T10:29:17.000Z,99687
2018-03-18T10:30:17.000Z,99684
2018-03-18T10:32:17.000Z,99658
2018-03-18T10:34:17.000Z,99674
2018-03-18T10:36:17.000Z,99681
2018-03-18T10:38:17.000Z,99683
2018-03-18T10:40:17.000Z,99676
2018-03-18T10:41:17.000Z,99685
2018-03-18T10:43:02.000Z,99685
2018-03-18T10:44:17.000Z,99678
2018-03-18T10:46:17.000Z,99679
2018-03-18T10:48:02.000Z,99673
2018-03-18T10:49:17.000Z,99678
2018-03-18T10:50:46.000Z,99681
2018-03-18T10:52:17.000Z,99687
2018-03-18T10:53:17.000Z,99678
2018-03-18T10:55:02.000Z,99682
2018-03-18T10:56:17.000Z,99689
2018-03-18T10:57:17.000Z,99684
2018-03-18T10:59:17.000Z,99680
2018-03-18T11:01:17.000Z,99689
2018-03-18T11:02:17.000Z,99679
2018-03-18T11:04:02.000Z,99681
2018-03-18T11:05:17.000Z,99672
2018-03-18T11:07:17.000Z,99662
2018-03-18T11:08:17.000Z,99668
2018-03-18T11:10:17.000Z,99678
2018-03-18T11:11:17.000Z,99682
2018-03-18T11:13:02.000Z,99682
2018-03-18T11:14:02.000Z,99669
2018-03-18T11:15:17.000Z,99652
2018-03-18T11:17:17.000Z,99659
2018-03-18T11:19:17.000Z,99673
2018-03-18T11:21:17.000Z,99672
2018-03-18T11:22:17.000Z,99671
2018-03-18T11:24:17.000Z,99664
2018-03-18T11:26:17.000Z,99667
2018-03-18T11:27:17.000Z,99652
2018-03-18T11:29:17.000Z,99663
2018-03-18T11:31:17.000Z,99650
2018-03-18T11:32:17.000Z,99654
2018-03-18T11:34:17.000Z,99667
2018-03-18T11:35:17.000Z,99650
2018-03-18T11:36:17.000Z,99656
2018-03-18T11:38:17.000Z,99658
2018-03-18T11:40:17.000Z,99652
2018-03-18T11:42:17.000Z,99651
2018-03-18T11:43:17.000Z,99652
2018-03-18T11:45:17.000Z,99659
2018-03-18T11:47:17.000Z,99661
2018-03-18T11:49:17.000Z,99658
2018-03-18T11:51:17.000Z,99647
2018-03-18T11:53:17.000Z,99657
2018-03-18T11:55:17.000Z,99659
2018-03-18T11:57:17.000Z,99651
2018-03-18T11:59:17.000Z,99661
2018-03-18T12:00:17.000Z,99662
2018-03-18T12:02:17.000Z,99652
2018-03-18T12:04:17.000Z,99660
2018-03-18T12:06:17.000Z,99663
2018-03-18T12:08:02.000Z,99663
2018-03-18T12:09:17.000Z,99660
2018-03-18T12:11:17.000Z,99636
2018-03-18T12:13:17.000Z,99655
2018-03-18T12:14:17.000Z,99649
2018-03-18T12:16:17.000Z,99665
2018-03-18T12:18:17.000Z,99659
2018-03-18T12:20:17.000Z,99656
2018-03-18T12:22:17.000Z,99651
2018-03-18T12:24:17.000Z,99647
2018-03-18T12:25:17.000Z,99659
2018-03-18T12:27:17.000Z,99655
2018-03-18T12:28:17.000Z,99659
2018-03-18T12:30:17.000Z,99653
2018-03-18T12:31:17.000Z,99654
2018-03-18T12:32:17.000Z,99660
2018-03-18T12:34:17.000Z,99654
2018-03-18T12:35:16.000Z,99646
2018-03-18T12:37:16.000Z,99657
2018-03-18T12:39:01.000Z,99637
2018-03-18T12:40:16.000Z,99647
2018-03-18T12:42:16.000Z,99648
2018-03-18T12:44:16.000Z,99651
2018-03-18T12:46:16.000Z,99626
2018-03-18T12:47:16.000Z,99638
2018-03-18T12:49:16.000Z,99619
2018-03-18T12:50:16.000Z,99626
2018-03-18T12:52:16.000Z,99626
2018-03-18T12:54:16.000Z,99622
2018-03-18T12:55:16.000Z,99614
2018-03-18T12:57:16.000Z,99626
2018-03-18T12:59:01.000Z,99614
2018-03-18T13:00:16.000Z,99620
2018-03-18T13:01:16.000Z,99612
2018-03-18T13:03:16.000Z,99616
2018-03-18T13:05:16.000Z,99626
2018-03-18T13:07:16.000Z,99628
2018-03-18T13:09:16.000Z,99624
2018-03-18T13:10:16.000Z,99617
2018-03-18T13:12:16.000Z,99633
2018-03-18T13:14:16.000Z,99621
2018-03-18T13:16:16.000Z,99632
2018-03-18T13:17:16.000Z,99632
2018-03-18T13:19:16.000Z,99632
2018-03-18T13:21:16.000Z,99625
2018-03-18T13:23:01.000Z,99616
2018-03-18T13:24:16.000Z,99629
2018-03-18T13:25:16.000Z,99620
2018-03-18T13:27:16.000Z,99621
2018-03-18T13:28:16.000Z,99626
2018-03-18T13:30:16.000Z,99637
2018-03-18T13:32:01.000Z,99632
2018-03-18T13:34:16.000Z,99624
2018-03-18T13:36:16.000Z,99633
2018-03-18T13:38:16.000Z,99631
2018-03-18T13:40:02.000Z,99628
2018-03-18T13:41:17.000Z,99633
2018-03-18T13:42:17.000Z,99627
2018-03-18T13:44:17.000Z,99633
2018-03-18T13:45:17.000Z,99619
2018-03-18T13:47:02.000Z,99644
2018-03-18T13:48:17.000Z,99636
2018-03-18T13:50:17.000Z,99642
2018-03-18T13:51:17.000Z,99618
2018-03-18T13:53:17.000Z,99618
2018-03-18T13:54:17.000Z,99625
2018-03-18T13:55:17.000Z,99626
2018-03-18T13:57:17.000Z,99631
2018-03-18T13:59:17.000Z,99622
2018-03-18T14:01:17.000Z,99616
2018-03-18T14:03:17.000Z,99609
2018-03-18T14:05:17.000Z,99628
2018-03-18T14:07:17.000Z,99634
2018-03-18T14:08:17.000Z,99631
2018-03-18T14:10:17.000Z,99637
2018-03-18T14:12:02.000Z,99627
2018-03-18T14:13:17.000Z,99630
2018-03-18T14:14:17.000Z,99628
2018-03-18T14:16:17.000Z,99640
2018-03-18T14:18:02.000Z,99649
2018-03-18T14:19:17.000Z,99642
2018-03-18T14:21:02.000Z,99638
2018-03-18T14:22:17.000Z,99640
2018-03-18T14:24:02.000Z,99555
2018-03-18T14:26:02.000Z,99637
2018-03-18T14:27:17.000Z,99639
2018-03-18T14:28:17.000Z,99639
2018-03-18T14:30:17.000Z,99620
2018-03-18T14:32:17.000Z,99643
2018-03-18T14:34:17.000Z,99650
2018-03-18T14:36:17.000Z,99648
2018-03-18T14:37:17.000Z,99647
2018-03-18T14:38:17.000Z,99632
2018-03-18T14:39:17.000Z,99641
2018-03-18T14:41:17.000Z,99649
2018-03-18T14:43:16.000Z,99650
2018-03-18T14:44:46.000Z,99642
2018-03-18T14:46:16.000Z,99649
2018-03-18T14:48:16.000Z,99644
2018-03-18T14:50:16.000Z,99633
2018-03-18T14:51:16.000Z,99640
2018-03-18T14:53:16.000Z,99641
2018-03-18T14:55:16.000Z,99648
2018-03-18T14:57:01.000Z,99639
2018-03-18T14:58:16.000Z,99649
2018-03-18T15:00:16.000Z,99648
2018-03-18T15:02:16.000Z,99642
2018-03-18T15:04:16.000Z,99641
2018-03-18T15:06:01.000Z,99639
2018-03-18T15:07:16.000Z,99634
2018-03-18T15:08:16.000Z,99650
2018-03-18T15:09:16.000Z,99638
2018-03-18T15:10:16.000Z,99640
2018-03-18T15:12:16.000Z,99651
2018-03-18T15:13:16.000Z,99649
2018-03-18T15:15:16.000Z,99648
2018-03-18T15:17:16.000Z,99654
2018-03-18T15:18:16.000Z,99649
2018-03-18T15:20:16.000Z,99655
2018-03-18T15:22:16.000Z,99651
2018-03-18T15:24:16.000Z,99646
2018-03-18T15:26:16.000Z,99650
2018-03-18T15:27:46.000Z,99667
2018-03-18T15:29:16.000Z,99651
2018-03-18T15:31:16.000Z,99649
2018-03-18T15:33:16.000Z,99655
2018-03-18T15:35:16.000Z,99654
2018-03-18T15:37:16.000Z,99660
2018-03-18T15:39:16.000Z,99653
2018-03-18T15:40:16.000Z,99645
2018-03-18T15:41:16.000Z,99658
2018-03-18T15:43:16.000Z,99657
2018-03-18T15:45:16.000Z,99668
2018-03-18T15:47:01.000Z,99654
2018-03-18T15:48:16.000Z,99655
2018-03-18T15:49:16.000Z,99656
2018-03-18T15:51:16.000Z,99652
2018-03-18T15:53:16.000Z,99658
2018-03-18T15:54:16.000Z,99641
2018-03-18T15:56:01.000Z,99643
2018-03-18T15:57:16.000Z,99638
2018-03-18T15:59:16.000Z,99649
2018-03-18T16:01:16.000Z,99634
2018-03-18T16:02:16.000Z,99659
2018-03-18T16:04:16.000Z,99647
2018-03-18T16:05:16.000Z,99652
2018-03-18T16:07:16.000Z,99662
2018-03-18T16:09:16.000Z,99657
2018-03-18T16:11:16.000Z,99660
2018-03-18T16:13:16.000Z,99661
2018-03-18T16:15:16.000Z,99662
2018-03-18T16:16:16.000Z,99664
2018-03-18T16:17:16.000Z,99670
2018-03-18T16:19:16.000Z,99664
2018-03-18T16:21:16.000Z,99661
2018-03-18T16:23:01.000Z,99669
2018-03-18T16:24:16.000Z,99677
2018-03-18T16:25:16.000Z,99679
2018-03-18T16:27:16.000Z,99677
2018-03-18T16:29:16.000Z,99675
2018-03-18T16:30:16.000Z,99680
2018-03-18T16:32:16.000Z,99686
2018-03-18T16:33:16.000Z,99691
2018-03-18T16:35:16.000Z,99689
2018-03-18T16:36:16.000Z,99694
2018-03-18T16:37:16.000Z,99696
2018-03-18T16:38:16.000Z,99687
2018-03-18T16:40:16.000Z,99703
2018-03-18T16:41:16.000Z,99689
2018-03-18T16:43:16.000Z,99700
2018-03-18T16:45:16.000Z,99708
2018-03-18T16:47:16.000Z,99715
2018-03-18T16:49:01.000Z,99700
2018-03-18T16:50:17.000Z,99712
2018-03-18T16:51:17.000Z,99711
2018-03-18T16:52:17.000Z,99722
2018-03-18T16:53:17.000Z,99723
2018-03-18T16:55:17.000Z,99725
2018-03-18T16:57:01.000Z,99724
2018-03-18T16:58:17.000Z,99735
2018-03-18T17:00:17.000Z,99732
2018-03-18T17:02:17.000Z,99740
2018-03-18T17:03:46.000Z,99749
2018-03-18T17:05:17.000Z,99741
2018-03-18T17:06:17.000Z,99735
2018-03-18T17:08:01.000Z,99744
2018-03-18T17:09:17.000Z,99735
2018-03-18T17:11:17.000Z,99752
2018-03-18T17:13:17.000Z,99760
2018-03-18T17:15:17.000Z,99750
2018-03-18T17:17:17.000Z,99760
2018-03-18T17:19:17.000Z,99768
2018-03-18T17:20:17.000Z,99765
2018-03-18T17:22:17.000Z,99761
2018-03-18T17:23:17.000Z,99775
2018-03-18T17:25:17.000Z,99765
2018-03-18T17:27:01.000Z,99776
2018-03-18T17:28:17.000Z,99777
2018-03-18T17:30:17.000Z,99781
2018-03-18T17:31:17.000Z,99776
2018-03-18T17:33:17.000Z,99782
2018-03-18T17:35:17.000Z,99789
2018-03-18T17:37:17.000Z,99790
2018-03-18T17:39:17.000Z,99801
2018-03-18T17:41:17.000Z,99795
2018-03-18T17:42:17.000Z,99798
2018-03-18T17:44:17.000Z,99795
2018-03-18T17:45:17.000Z,99810
2018-03-18T17:47:17.000Z,99806
2018-03-18T17:49:17.000Z,99818
2018-03-18T17:50:17.000Z,99817
2018-03-18T17:51:17.000Z,99818
2018-03-18T17:53:01.000Z,99820
2018-03-18T17:54:16.000Z,99820
2018-03-18T17:55:16.000Z,99822
2018-03-18T17:57:16.000Z,99825
2018-03-18T17:59:16.000Z,99837
2018-03-18T18:00:16.000Z,99834
2018-03-18T18:02:16.000Z,99835
2018-03-18T18:03:16.000Z,99841
2018-03-18T18:05:16.000Z,99840
2018-03-18T18:07:01.000Z,99849
2018-03-18T18:08:16.000Z,99840
2018-03-18T18:10:16.000Z,99848
2018-03-18T18:11:16.000Z,99846
2018-03-18T18:13:01.000Z,99860
2018-03-18T18:14:16.000Z,99857
2018-03-18T18:15:46.000Z,99852
2018-03-18T18:17:16.000Z,99861
2018-03-18T18:19:16.000Z,99863
2018-03-18T18:21:16.000Z,99858
2018-03-18T18:23:16.000Z,99860
2018-03-18T18:24:16.000Z,99864
2018-03-18T18:26:16.000Z,99870
2018-03-18T18:27:16.000Z,99875
2018-03-18T18:28:16.000Z,99868
2018-03-18T18:30:01.000Z,99867
2018-03-18T18:31:16.000Z,99854
2018-03-18T18:33:16.000Z,99873
2018-03-18T18:35:16.000Z,99876
2018-03-18T18:37:16.000Z,99880
2018-03-18T18:38:16.000Z,99886
2018-03-18T18:40:01.000Z,99887
2018-03-18T18:41:16.000Z,99884
2018-03-18T18:43:16.000Z,99888
2018-03-18T18:45:16.000Z,99891
2018-03-18T18:47:16.000Z,99897
2018-03-18T18:49:16.000Z,99898
2018-03-18T18:50:16.000Z,99895
2018-03-18T18:52:16.000Z,99896
2018-03-18T18:54:16.000Z,99898
2018-03-18T18:56:17.000Z,99907
2018-03-18T18:58:17.000Z,99904
2018-03-18T18:59:17.000Z,99900
2018-03-18T19:01:17.000Z,99900
2018-03-18T19:02:17.000Z,99908
2018-03-18T19:03:17.000Z,99904
2018-03-18T19:05:17.000Z,99893
2018-03-18T19:07:17.000Z,99902
2018-03-18T19:09:17.000Z,99905
2018-03-18T19:10:17.000Z,99902
2018-03-18T19:11:17.000Z,99893
2018-03-18T19:12:46.000Z,99906
2018-03-18T19:14:17.000Z,99905
2018-03-18T19:16:17.000Z,99910
2018-03-18T19:17:17.000Z,99906
2018-03-18T19:19:01.000Z,99906
2018-03-18T19:20:17.000Z,99905
2018-03-18T19:22:17.000Z,99902
2018-03-18T19:24:17.000Z,99916
2018-03-18T19:25:17.000Z,99919
2018-03-18T19:27:17.000Z,99918
2018-03-18T19:29:01.000Z,99913
2018-03-18T19:30:17.000Z,99911
2018-03-18T19:31:17.000Z,99906
2018-03-18T19:33:17.000Z,99899
2018-03-18T19:34:17.000Z,99907
2018-03-18T19:35:17.000Z,99908
2018-03-18T19:37:17.000Z,99903
2018-03-18T19:38:17.000Z,99908
2018-03-18T19:40:17.000Z,99910
2018-03-18T19:42:17.000Z,99891
2018-03-18T19:44:17.000Z,99890
2018-03-18T19:46:17.000Z,99887
2018-03-18T19:47:17.000Z,99889
2018-03-18T19:49:17.000Z,99898
2018-03-18T19:51:17.000Z,99903
2018-03-18T19:53:17.000Z,99906
2018-03-18T19:55:17.000Z,99899
2018-03-18T19:57:17.000Z,99897
2018-03-18T19:59:17.000Z,99902
2018-03-18T20:00:17.000Z,99904
2018-03-18T20:02:17.000Z,99906
2018-03-18T20:03:17.000Z,99910
2018-03-18T20:05:17.000Z,99901
2018-03-18T20:06:17.000Z,99905
2018-03-18T20:08:17.000Z,99909
2018-03-18T20:10:17.000Z,99902
2018-03-18T20:12:17.000Z,99900
2018-03-18T20:14:17.000Z,99906
2018-03-18T20:15:17.000Z,99900
2018-03-18T20:16:17.000Z,99904
2018-03-18T20:18:02.000Z,99898
2018-03-18T20:19:17.000Z,99908
2018-03-18T20:20:17.000Z,99907
2018-03-18T20:21:17.000Z,99897
2018-03-18T20:23:17.000Z,99905
2018-03-18T20:24:17.000Z,99902
2018-03-18T20:26:17.000Z,99899
2018-03-18T20:28:17.000Z,99894
2018-03-18T20:29:17.000Z,99908
2018-03-18T20:31:17.000Z,99909
2018-03-18T20:32:17.000Z,99907
2018-03-18T20:34:17.000Z,99907
2018-03-18T20:35:17.000Z,99916
2018-03-18T20:37:17.000Z,99912
2018-03-18T20:38:17.000Z,99916
2018-03-18T20:40:17.000Z,99915
2018-03-18T20:41:17.000Z,99918
2018-03-18T20:42:17.000Z,99917